Etusivu
METAR-TAF:

METAR-TAF

Lentoasemat :

Linaten lentoasema

Milano, Italia

Leveyspiiri: 45-26N, Pituuspiiri: 009-17E, korkeus merenpinnasta: 107 m

Tämänhetkinen sää

Tämä raportti tehtiin 25 minuuttia sitten, kello 08.20 UTC
Tuuli 9 kn idästä
Lämpötila 22°C
Kosteus 50%
Ilmanpaine 1022 hPa
Näkyvyys 10 km tai enemmän
Hajanaisia pilviä 6000 ft:n korkeudessa

METAR: LIML 130820Z 10009KT 9999 SCT060 22/11 Q1022 NOSIG

Aika: 10:45 (08:45 UTC)

Sääennuste

Tämä raportti tehtiin 3 tuntia ja 45 minuuttia sitten, kello 05.00 UTC
Ennuste voimassa 13. päivästä klo 06 UTC - 14. päivään klo 06 UTC
Tuuli 8 kn idästä
Näkyvyys 10 km tai enemmän
ei pilviä alle 1500 m:ssä eikä cumulonimbus-pilviä

TAF: LIML 130500Z 1306/1406 10008KT CAVOK

Säähavainnot ja -ennusteet yli 4000 lentoasemalta (METAR- ja TAF-raportit).

Käytössä olevat sääasemat on merkitty karttaan keltaisilla ja punaisilla pisteillä.

Aseta hiiri pisteen päälle nähdäksesi sääaseman nimen.

Klikkaa sitten nähdäksesi säähavainnot ja -ennusteet.

Kartan vaihtaminen: klikkaa mustalla rastilla varustettuja vihreitä pisteitä, niin voit zoomata sisään; viivalla varustettua vihreää pistettä, niin voit zoomata ulos tai vihreitä nuolia, niin pääset viereisille kartoille.


METAR-TAF: